createdAt,value
2023-01-17T00:02:57.883Z,25.57
2023-01-17T00:06:19.541Z,28.20
2023-01-17T00:09:40.752Z,30.02
2023-01-17T00:12:48.743Z,37.17
2023-01-17T00:15:52.369Z,32.85
2023-01-17T00:19:13.364Z,33.53
2023-01-17T00:22:47.131Z,36.60
2023-01-17T00:26:04.775Z,24.23
2023-01-17T00:29:07.300Z,30.55
2023-01-17T00:32:09.939Z,17.25
2023-01-17T00:35:12.613Z,30.63
2023-01-17T00:38:17.604Z,18.95
2023-01-17T00:41:20.118Z,25.92
2023-01-17T00:44:41.135Z,34.93
2023-01-17T00:48:06.000Z,33.03
2023-01-17T00:51:27.355Z,21.95
2023-01-17T00:54:48.620Z,28.30
2023-01-17T00:58:09.721Z,15.90
2023-01-17T01:01:31.245Z,24.23
2023-01-17T01:04:52.800Z,18.17
2023-01-17T01:08:14.423Z,37.67
2023-01-17T01:11:39.197Z,31.27
2023-01-17T01:15:00.305Z,22.38
2023-01-17T01:18:30.469Z,24.43
2023-01-17T01:21:52.381Z,25.67
2023-01-17T01:25:13.821Z,27.50
2023-01-17T01:28:34.763Z,24.50
2023-01-17T01:31:56.818Z,24.45
2023-01-17T01:34:59.406Z,28.23
2023-01-17T01:38:03.318Z,26.13
2023-01-17T01:41:06.802Z,26.13
2023-01-17T01:44:43.647Z,24.73
2023-01-17T01:47:47.476Z,26.90
2023-01-17T01:50:51.132Z,28.27
2023-01-17T01:54:01.280Z,26.00
2023-01-17T01:57:07.735Z,14.38
2023-01-17T02:00:18.116Z,19.90
2023-01-17T02:03:29.556Z,11.07
2023-01-17T02:06:39.042Z,22.17
2023-01-17T02:09:42.032Z,24.90
2023-01-17T02:12:45.949Z,20.47
2023-01-17T02:16:13.807Z,16.30
2023-01-17T02:19:45.335Z,20.15
2023-01-17T02:23:11.882Z,18.83
2023-01-17T02:26:42.542Z,23.33
2023-01-17T02:30:09.380Z,21.85
2023-01-17T02:33:39.261Z,24.20
2023-01-17T02:36:52.786Z,21.30
2023-01-17T02:40:02.863Z,18.00
2023-01-17T02:43:11.844Z,18.00
2023-01-17T02:46:14.500Z,30.10
2023-01-17T02:49:19.523Z,24.10
2023-01-17T02:52:51.947Z,25.98
2023-01-17T02:56:06.116Z,25.73
2023-01-17T02:59:08.976Z,23.08
2023-01-17T03:02:53.066Z,22.10
2023-01-17T03:06:02.580Z,21.05
2023-01-17T03:09:06.308Z,24.90
2023-01-17T03:12:09.864Z,27.33
2023-01-17T03:15:14.167Z,28.65
2023-01-17T03:18:17.420Z,21.93
2023-01-17T03:21:21.112Z,25.38
2023-01-17T03:24:24.051Z,23.23
2023-01-17T03:27:26.546Z,27.37
2023-01-17T03:30:29.748Z,23.20
2023-01-17T03:33:32.309Z,22.95
2023-01-17T03:36:35.114Z,19.85
2023-01-17T03:39:37.789Z,24.70
2023-01-17T03:42:40.543Z,26.52
2023-01-17T03:45:43.384Z,19.95
2023-01-17T03:48:46.424Z,16.37
2023-01-17T03:51:49.714Z,25.70
2023-01-17T03:54:52.346Z,26.73
2023-01-17T03:57:54.714Z,24.60
2023-01-17T04:00:57.821Z,22.08
2023-01-17T04:04:01.011Z,17.30
2023-01-17T04:07:03.945Z,27.30
2023-01-17T04:10:07.167Z,24.95
2023-01-17T04:13:09.917Z,23.67
2023-01-17T04:16:15.691Z,30.85
2023-01-17T04:19:18.992Z,33.53
2023-01-17T04:22:21.593Z,39.60
2023-01-17T04:25:25.914Z,23.83
2023-01-17T04:28:28.299Z,19.20
2023-01-17T04:31:31.401Z,22.27
2023-01-17T04:34:33.955Z,23.83
2023-01-17T04:37:37.244Z,27.20
2023-01-17T04:40:39.816Z,22.80
2023-01-17T04:43:42.452Z,17.58
2023-01-17T04:46:45.089Z,24.52
2023-01-17T04:49:48.018Z,26.63
2023-01-17T04:52:50.539Z,27.60
2023-01-17T04:55:53.730Z,24.38
2023-01-17T04:58:59.184Z,26.97
2023-01-17T05:02:01.983Z,24.67
2023-01-17T05:05:04.957Z,18.13
2023-01-17T05:08:07.926Z,26.48
2023-01-17T05:11:10.699Z,21.02
2023-01-17T05:14:13.658Z,17.25
2023-01-17T05:17:16.391Z,16.05
2023-01-17T05:20:20.070Z,30.00
2023-01-17T05:23:22.933Z,21.35
2023-01-17T05:26:25.675Z,17.23
2023-01-17T05:29:28.881Z,14.60
2023-01-17T05:32:31.914Z,13.27
2023-01-17T05:35:34.286Z,17.52
2023-01-17T05:38:37.088Z,26.70
2023-01-17T05:41:39.848Z,26.13
2023-01-17T05:44:42.786Z,20.60
2023-01-17T05:47:52.868Z,22.02
2023-01-17T05:50:55.584Z,22.60
2023-01-17T05:53:58.062Z,26.63
2023-01-17T05:57:00.966Z,21.13
2023-01-17T06:00:03.971Z,23.80
2023-01-17T06:03:07.409Z,14.65
2023-01-17T06:06:09.812Z,23.33
2023-01-17T06:09:12.614Z,22.83
2023-01-17T06:12:15.644Z,9.77
2023-01-17T06:15:18.861Z,7.90
2023-01-17T06:18:21.194Z,7.35
2023-01-17T06:21:23.924Z,8.37
2023-01-17T06:24:27.271Z,11.10
2023-01-17T06:27:29.963Z,10.55
2023-01-17T06:30:32.737Z,11.17
2023-01-17T06:33:35.563Z,9.05
2023-01-17T06:36:38.016Z,6.15
2023-01-17T06:39:40.677Z,5.43
2023-01-17T06:42:43.716Z,7.28
2023-01-17T06:45:46.321Z,10.48
2023-01-17T06:48:49.894Z,9.05
2023-01-17T06:51:52.517Z,7.57
2023-01-17T06:54:54.916Z,9.38
2023-01-17T06:57:59.572Z,11.30
2023-01-17T07:01:10.556Z,6.97
2023-01-17T07:04:14.457Z,6.07
2023-01-17T07:07:19.462Z,8.48
2023-01-17T07:10:24.106Z,5.00
2023-01-17T07:13:28.818Z,5.95
2023-01-17T07:16:31.934Z,9.00
2023-01-17T07:19:34.461Z,5.45
2023-01-17T07:22:37.838Z,7.23
2023-01-17T07:25:40.547Z,9.23
2023-01-17T07:28:43.214Z,5.30
2023-01-17T07:31:45.770Z,4.67
2023-01-17T07:34:48.435Z,4.53
2023-01-17T07:37:51.592Z,5.88
2023-01-17T07:40:58.919Z,7.43
2023-01-17T07:44:01.964Z,7.57
2023-01-17T07:47:04.665Z,7.88
2023-01-17T07:50:09.177Z,10.60
2023-01-17T07:53:11.983Z,4.83
2023-01-17T07:56:14.502Z,7.28
2023-01-17T07:59:18.623Z,8.45
2023-01-17T08:02:24.410Z,11.07
2023-01-17T08:05:30.888Z,8.82
2023-01-17T08:08:33.920Z,9.95
2023-01-17T08:11:36.552Z,8.15
2023-01-17T08:14:39.064Z,7.85
2023-01-17T08:17:54.537Z,7.40
2023-01-17T08:20:56.995Z,7.88
2023-01-17T08:23:59.423Z,8.30
2023-01-17T08:27:01.865Z,8.93
2023-01-17T08:30:05.865Z,6.80
2023-01-17T08:33:08.414Z,7.20
2023-01-17T08:36:11.018Z,8.20
2023-01-17T08:39:14.689Z,7.15
2023-01-17T08:42:17.229Z,8.45
2023-01-17T08:45:19.856Z,11.10
2023-01-17T08:48:23.662Z,5.75
2023-01-17T08:51:28.953Z,7.82
2023-01-17T08:54:35.660Z,11.07
2023-01-17T08:57:38.420Z,11.15
2023-01-17T09:00:41.327Z,8.88
2023-01-17T09:03:45.765Z,10.00
2023-01-17T09:06:48.872Z,7.85
2023-01-17T09:09:52.851Z,10.90
2023-01-17T09:12:55.697Z,8.77
2023-01-17T09:15:59.373Z,10.35
2023-01-17T09:19:02.002Z,10.02
2023-01-17T09:22:05.609Z,10.95
2023-01-17T09:25:08.816Z,12.70
2023-01-17T09:28:11.543Z,12.48
2023-01-17T09:31:16.589Z,13.13
2023-01-17T09:34:20.014Z,11.47
2023-01-17T09:37:22.642Z,9.02
2023-01-17T09:40:25.745Z,10.07
2023-01-17T09:43:47.505Z,10.90
2023-01-17T09:46:54.531Z,10.43
2023-01-17T09:50:27.233Z,11.85
2023-01-17T09:53:34.238Z,7.85
2023-01-17T09:56:43.828Z,6.13
2023-01-17T10:00:16.360Z,9.35
2023-01-17T10:03:30.976Z,7.78
2023-01-17T10:07:11.928Z,5.63
2023-01-17T10:10:26.755Z,7.10
2023-01-17T10:13:54.243Z,8.18
2023-01-17T10:17:00.037Z,8.20
2023-01-17T10:20:30.770Z,6.53
2023-01-17T10:24:03.838Z,4.95
2023-01-17T10:27:25.085Z,5.10
2023-01-17T10:30:51.940Z,7.43
2023-01-17T10:33:55.652Z,4.97
2023-01-17T10:37:23.048Z,2.67
2023-01-17T10:40:55.091Z,4.73
2023-01-17T10:44:45.672Z,3.03
2023-01-17T10:47:59.608Z,1.63
2023-01-17T10:51:11.428Z,2.13
2023-01-17T10:54:43.250Z,3.38
2023-01-17T10:57:48.878Z,2.85
2023-01-17T11:00:59.447Z,3.63
2023-01-17T11:04:02.576Z,2.93
2023-01-17T11:07:16.336Z,3.92
2023-01-17T11:10:41.854Z,1.92
2023-01-17T11:13:47.869Z,4.87
2023-01-17T11:17:04.758Z,4.45
2023-01-17T11:20:43.154Z,5.22
2023-01-17T11:23:49.049Z,2.40
2023-01-17T11:26:51.705Z,2.95
2023-01-17T11:30:20.373Z,3.78
2023-01-17T11:33:48.314Z,6.75
2023-01-17T11:37:17.275Z,4.10
2023-01-17T11:40:23.968Z,5.95
2023-01-17T11:43:27.675Z,4.80
2023-01-17T11:46:30.468Z,2.57
2023-01-17T11:49:32.992Z,1.48
2023-01-17T11:52:39.307Z,2.88
2023-01-17T11:56:12.415Z,1.75
2023-01-17T11:59:21.266Z,5.57
2023-01-17T12:02:48.309Z,1.50
2023-01-17T12:06:01.852Z,2.25
2023-01-17T12:09:34.937Z,2.43
2023-01-17T12:13:11.267Z,1.35
2023-01-17T12:16:30.005Z,4.10
2023-01-17T12:19:51.352Z,2.50
2023-01-17T12:23:16.240Z,2.38
2023-01-17T12:26:28.822Z,2.65
2023-01-17T12:29:49.951Z,3.88
2023-01-17T12:33:10.736Z,2.97
2023-01-17T12:36:22.525Z,3.17
2023-01-17T12:39:35.725Z,4.45
2023-01-17T12:42:43.252Z,3.23
2023-01-17T12:45:49.472Z,2.70
2023-01-17T12:48:58.407Z,3.33
2023-01-17T12:52:48.811Z,3.27
2023-01-17T12:56:17.335Z,3.58
2023-01-17T12:59:39.287Z,2.58
2023-01-17T13:02:54.708Z,2.95
2023-01-17T13:05:58.587Z,1.27
2023-01-17T13:09:03.890Z,2.55
2023-01-17T13:12:12.643Z,2.45
2023-01-17T13:15:27.254Z,2.00
2023-01-17T13:18:30.056Z,2.53
2023-01-17T13:21:34.634Z,2.30
2023-01-17T13:25:23.346Z,2.83
2023-01-17T13:28:35.503Z,2.05
2023-01-17T13:31:50.837Z,1.73
2023-01-17T13:35:01.753Z,2.35
2023-01-17T13:38:23.123Z,2.50
2023-01-17T13:41:34.625Z,5.30
2023-01-17T13:44:37.579Z,1.70
2023-01-17T13:47:41.557Z,1.67
2023-01-17T13:50:58.456Z,4.05
2023-01-17T13:54:01.130Z,2.78
2023-01-17T13:57:30.428Z,4.60
2023-01-17T14:00:36.103Z,4.97
2023-01-17T14:03:46.266Z,2.40
2023-01-17T14:06:53.085Z,2.95
2023-01-17T14:09:55.569Z,2.72
2023-01-17T14:12:59.100Z,1.85
2023-01-17T14:16:05.446Z,7.15
2023-01-17T14:19:26.118Z,5.30
2023-01-17T14:22:32.044Z,4.97
2023-01-17T14:25:40.582Z,6.20
2023-01-17T14:28:43.053Z,8.90
2023-01-17T14:31:45.980Z,5.15
2023-01-17T14:34:57.257Z,6.05
2023-01-17T14:38:05.404Z,6.63
2023-01-17T14:41:13.361Z,9.73
2023-01-17T14:44:16.907Z,30.45
2023-01-17T14:47:20.223Z,11.43
2023-01-17T14:50:26.736Z,14.50
2023-01-17T14:53:31.560Z,22.90
2023-01-17T14:56:34.209Z,17.60
2023-01-17T14:59:36.787Z,17.83
2023-01-17T15:02:43.996Z,16.42
2023-01-17T15:05:51.437Z,31.13
2023-01-17T15:08:54.600Z,26.20
2023-01-17T15:11:58.183Z,24.63
2023-01-17T15:15:01.701Z,17.90
2023-01-17T15:18:14.792Z,16.30
2023-01-17T15:21:21.141Z,19.87
2023-01-17T15:24:27.710Z,24.17
2023-01-17T15:27:30.560Z,44.55
2023-01-17T15:30:33.183Z,65.93
2023-01-17T15:33:38.936Z,83.03
2023-01-17T15:36:41.558Z,44.20
2023-01-17T15:39:44.144Z,35.05
2023-01-17T15:42:51.214Z,31.60
2023-01-17T15:45:58.514Z,24.63
2023-01-17T15:49:31.227Z,100.60
2023-01-17T15:52:33.806Z,71.73
2023-01-17T15:55:40.159Z,46.10
2023-01-17T15:58:42.684Z,31.13
2023-01-17T16:01:55.726Z,24.37
2023-01-17T16:04:59.915Z,12.30
2023-01-17T16:08:06.297Z,16.38
2023-01-17T16:11:11.775Z,22.92
2023-01-17T16:14:14.309Z,17.70
2023-01-17T16:17:17.881Z,17.30
2023-01-17T16:20:23.356Z,30.98
2023-01-17T16:23:26.583Z,56.47
2023-01-17T16:26:29.534Z,54.47
2023-01-17T16:29:32.021Z,46.88
2023-01-17T16:32:34.858Z,46.00
2023-01-17T16:35:37.716Z,27.40
2023-01-17T16:38:40.549Z,13.00
2023-01-17T16:41:43.350Z,13.20
2023-01-17T16:44:46.159Z,18.38
2023-01-17T16:51:10.564Z,25.42
2023-01-17T16:54:13.044Z,24.17
2023-01-17T16:57:16.003Z,20.40
2023-01-17T17:00:18.930Z,15.60
2023-01-17T17:03:21.846Z,21.27
2023-01-17T17:06:24.489Z,14.38
2023-01-17T17:09:26.980Z,14.45
2023-01-17T17:12:29.800Z,11.88
2023-01-17T17:15:32.432Z,51.08
2023-01-17T17:18:36.761Z,21.67
2023-01-17T17:21:39.925Z,18.27
2023-01-17T17:24:42.348Z,16.87
2023-01-17T17:27:45.260Z,16.83
2023-01-17T17:30:47.794Z,15.35
2023-01-17T17:33:50.660Z,26.90
2023-01-17T17:36:53.422Z,28.98
2023-01-17T17:39:57.869Z,24.40
2023-01-17T17:43:00.636Z,20.33
2023-01-17T17:46:03.267Z,22.98
2023-01-17T17:49:06.841Z,22.10
2023-01-17T17:52:10.333Z,23.02
2023-01-17T17:55:13.239Z,15.73
2023-01-17T17:58:16.038Z,19.20
2023-01-17T18:01:19.306Z,16.60
2023-01-17T18:04:22.371Z,19.07
2023-01-17T18:07:25.232Z,19.83
2023-01-17T18:10:28.012Z,11.15
2023-01-17T18:13:32.828Z,11.45
2023-01-17T18:16:39.445Z,11.10
2023-01-17T18:19:42.627Z,12.02
2023-01-17T18:22:45.772Z,12.63
2023-01-17T18:25:48.501Z,13.00
2023-01-17T18:28:56.820Z,11.30
2023-01-17T18:31:59.390Z,9.25
2023-01-17T18:35:04.117Z,9.60
2023-01-17T18:38:06.714Z,9.23
2023-01-17T18:41:15.797Z,9.30
2023-01-17T18:44:22.300Z,8.13
2023-01-17T18:47:25.513Z,9.98
2023-01-17T18:50:28.657Z,8.60
2023-01-17T18:53:33.489Z,7.15
2023-01-17T18:56:36.370Z,6.17
2023-01-17T18:59:39.868Z,6.90
2023-01-17T19:02:42.853Z,8.63
2023-01-17T19:05:47.050Z,9.10
2023-01-17T19:08:51.826Z,9.90
2023-01-17T19:11:54.725Z,8.82
2023-01-17T19:14:57.750Z,7.90
2023-01-17T19:18:00.603Z,8.27
2023-01-17T19:21:12.740Z,9.60
2023-01-17T19:24:15.781Z,7.53
2023-01-17T19:27:18.867Z,7.63
2023-01-17T19:30:22.526Z,10.10
2023-01-17T19:33:25.268Z,6.63
2023-01-17T19:36:33.965Z,7.70
2023-01-17T19:39:36.977Z,10.75
2023-01-17T19:42:40.770Z,11.13
2023-01-17T19:45:43.289Z,10.55
2023-01-17T19:48:46.252Z,10.73
2023-01-17T19:51:50.173Z,13.18
2023-01-17T19:54:53.083Z,9.27
2023-01-17T19:57:56.182Z,15.67
2023-01-17T20:01:17.013Z,14.82
2023-01-17T20:04:19.793Z,14.15
2023-01-17T20:07:23.064Z,12.60
2023-01-17T20:10:26.236Z,15.13
2023-01-17T20:13:29.393Z,14.85
2023-01-17T20:16:34.953Z,13.57
2023-01-17T20:19:37.497Z,12.77
2023-01-17T20:22:44.341Z,14.45
2023-01-17T20:25:59.143Z,13.98
2023-01-17T20:29:04.678Z,13.13
2023-01-17T20:32:08.192Z,13.48
2023-01-17T20:35:10.851Z,16.98
2023-01-17T20:38:21.800Z,13.43
2023-01-17T20:41:28.840Z,13.55
2023-01-17T20:44:32.823Z,13.77
2023-01-17T20:47:35.513Z,12.68
2023-01-17T20:50:38.330Z,13.52
2023-01-17T20:53:42.394Z,14.32
2023-01-17T20:56:47.560Z,15.23
2023-01-17T20:59:50.115Z,15.10
2023-01-17T21:02:53.483Z,17.35
2023-01-17T21:06:07.734Z,15.10
2023-01-17T21:09:15.315Z,17.10
2023-01-17T21:12:17.993Z,14.88
2023-01-17T21:15:20.736Z,16.35
2023-01-17T21:18:26.648Z,13.75
2023-01-17T21:21:29.563Z,16.02
2023-01-17T21:24:32.199Z,14.43
2023-01-17T21:27:35.636Z,14.07
2023-01-17T21:30:38.119Z,11.10
2023-01-17T21:33:40.765Z,11.40
2023-01-17T21:36:43.454Z,11.07
2023-01-17T21:39:51.559Z,14.17
2023-01-17T21:42:54.128Z,8.80
2023-01-17T21:45:57.072Z,9.13
2023-01-17T21:49:00.313Z,14.52
2023-01-17T21:52:03.158Z,13.00
2023-01-17T21:55:24.611Z,13.55
2023-01-17T21:58:45.799Z,11.52
2023-01-17T22:01:49.115Z,14.37
2023-01-17T22:04:51.739Z,14.32
2023-01-17T22:08:12.333Z,14.05
2023-01-17T22:11:17.343Z,7.87
2023-01-17T22:14:20.926Z,11.48
2023-01-17T22:17:23.544Z,14.43
2023-01-17T22:20:26.125Z,14.25
2023-01-17T22:23:28.635Z,13.10
2023-01-17T22:26:31.864Z,13.93
2023-01-17T22:29:36.546Z,13.25
2023-01-17T22:32:39.736Z,11.27
2023-01-17T22:35:42.703Z,10.07
2023-01-17T22:38:45.397Z,11.90
2023-01-17T22:41:48.414Z,10.30
2023-01-17T22:44:51.172Z,10.95
2023-01-17T22:47:53.932Z,16.33
2023-01-17T22:50:58.389Z,26.67
2023-01-17T22:54:01.574Z,10.90
2023-01-17T22:57:04.164Z,11.25
2023-01-17T23:00:14.692Z,6.20
2023-01-17T23:03:17.405Z,5.10
2023-01-17T23:06:28.429Z,4.35
2023-01-17T23:09:30.897Z,8.90
2023-01-17T23:12:34.130Z,5.83
2023-01-17T23:15:58.273Z,5.75
2023-01-17T23:19:19.212Z,8.65
2023-01-17T23:22:24.207Z,7.97
2023-01-17T23:25:26.900Z,8.25
2023-01-17T23:28:29.599Z,9.02
2023-01-17T23:31:32.609Z,7.90
2023-01-17T23:34:35.062Z,10.00
2023-01-17T23:37:56.696Z,10.00
2023-01-17T23:41:19.833Z,3.30
2023-01-17T23:44:23.972Z,4.10
2023-01-17T23:47:26.734Z,6.80
2023-01-17T23:50:29.366Z,4.47
2023-01-17T23:53:31.993Z,4.97
2023-01-17T23:56:34.689Z,7.60
2023-01-17T23:59:37.442Z,8.07
